createdAt,value
2023-01-07T00:00:04.272Z,-3.6
2023-01-07T00:05:02.599Z,-3.6
2023-01-07T00:10:03.219Z,-3.7
2023-01-07T00:15:01.605Z,-3.8
2023-01-07T00:19:59.832Z,-3.8
2023-01-07T00:24:58.072Z,-3.7
2023-01-07T00:29:56.473Z,-3.8
2023-01-07T00:34:54.998Z,-3.8
2023-01-07T00:39:53.267Z,-3.9
2023-01-07T00:44:51.731Z,-3.9
2023-01-07T00:49:50.133Z,-3.9
2023-01-07T00:54:48.681Z,-3.8
2023-01-07T00:59:46.943Z,-3.8
2023-01-07T01:04:45.230Z,-3.8
2023-01-07T01:09:43.719Z,-3.9
2023-01-07T01:14:42.236Z,-4
2023-01-07T01:19:40.573Z,-4
2023-01-07T01:24:38.754Z,-4
2023-01-07T01:29:37.002Z,-4.1
2023-01-07T01:34:35.551Z,-4.4
2023-01-07T01:39:34.307Z,-4.3
2023-01-07T01:44:32.604Z,-4.3
2023-01-07T01:49:27.998Z,-4.3
2023-01-07T01:54:26.409Z,-4.1
2023-01-07T01:59:24.704Z,-4.2
2023-01-07T02:04:23.201Z,-4
2023-01-07T02:09:22.035Z,-3.8
2023-01-07T02:14:20.618Z,-3.6
2023-01-07T02:19:18.946Z,-3.6
2023-01-07T02:24:17.360Z,-3.6
2023-01-07T02:29:15.672Z,-3.6
2023-01-07T02:34:14.120Z,-3.7
2023-01-07T02:39:12.481Z,-3.7
2023-01-07T02:44:10.797Z,-3.7
2023-01-07T02:49:09.186Z,-3.7
2023-01-07T02:54:06.879Z,-3.9
2023-01-07T02:59:05.196Z,-4
2023-01-07T03:04:03.764Z,-4.2
2023-01-07T03:09:01.787Z,-4.3
2023-01-07T03:14:00.346Z,-4.3
2023-01-07T03:18:58.468Z,-4.6
2023-01-07T03:23:56.726Z,-4.4
2023-01-07T03:28:55.233Z,-4.4
2023-01-07T03:33:53.548Z,-4.5
2023-01-07T03:38:51.817Z,-4.6
2023-01-07T03:43:50.163Z,-4.5
2023-01-07T03:48:48.375Z,-4.5
2023-01-07T03:53:47.490Z,-4.5
2023-01-07T03:58:46.018Z,-4.5
2023-01-07T04:03:44.514Z,-4.5
2023-01-07T04:08:42.787Z,-4.5
2023-01-07T04:13:41.151Z,-4.6
2023-01-07T04:18:39.607Z,-4.5
2023-01-07T04:23:38.164Z,-4.6
2023-01-07T04:28:36.671Z,-4.7
2023-01-07T04:33:35.188Z,-4.8
2023-01-07T04:38:33.289Z,-5
2023-01-07T04:43:29.994Z,-5.2
2023-01-07T04:48:28.347Z,-5.2
2023-01-07T04:53:26.759Z,-5.4
2023-01-07T04:58:24.874Z,-5.5
2023-01-07T05:03:23.211Z,-5.5
2023-01-07T05:08:21.708Z,-5.4
2023-01-07T05:13:20.369Z,-5.3
2023-01-07T05:18:18.730Z,-5.3
2023-01-07T05:23:17.295Z,-5.4
2023-01-07T05:28:15.711Z,-5.4
2023-01-07T05:33:14.206Z,-5.4
2023-01-07T05:38:12.666Z,-5.5
2023-01-07T05:43:14.723Z,-5.6
2023-01-07T05:48:12.310Z,-5.5
2023-01-07T05:53:10.727Z,-5.5
2023-01-07T05:58:09.067Z,-5.4
2023-01-07T06:03:07.661Z,-5.3
2023-01-07T06:08:05.985Z,-5.3
2023-01-07T06:13:04.645Z,-5.2
2023-01-07T06:18:03.010Z,-5.1
2023-01-07T06:23:01.612Z,-4.8
2023-01-07T06:28:00.217Z,-4.7
2023-01-07T06:32:58.953Z,-4.6
2023-01-07T06:37:57.631Z,-4.4
2023-01-07T06:42:55.971Z,-4.3
2023-01-07T06:47:55.118Z,-4.2
2023-01-07T06:52:54.343Z,-4
2023-01-07T06:57:52.925Z,-3.9
2023-01-07T07:02:51.494Z,-3.7
2023-01-07T07:07:51.747Z,0
2023-01-07T07:12:57.441Z,6
2023-01-07T07:18:00.731Z,9.8
2023-01-07T07:23:01.373Z,11.8
2023-01-07T07:28:01.623Z,13.2
2023-01-07T07:33:01.263Z,14.4
2023-01-07T07:38:00.672Z,15.4
2023-01-07T07:43:09.820Z,16
2023-01-07T07:47:59.172Z,17.1
2023-01-07T07:52:58.440Z,17.5
2023-01-07T07:57:57.624Z,18
2023-01-07T08:02:57.180Z,18.4
2023-01-07T08:07:56.546Z,18.7
2023-01-07T08:12:55.387Z,19.2
2023-01-07T08:17:54.029Z,19.1
2023-01-07T08:22:52.721Z,19
2023-01-07T08:27:51.681Z,19.5
2023-01-07T08:32:50.419Z,19.9
2023-01-07T08:37:48.950Z,19.6
2023-01-07T08:42:47.639Z,20.2
2023-01-07T08:47:46.526Z,20.4
2023-01-07T08:52:45.642Z,20.6
2023-01-07T08:57:44.323Z,20.8
2023-01-07T09:02:43.155Z,21.3
2023-01-07T09:07:42.217Z,21.9
2023-01-07T09:12:40.630Z,21.8
2023-01-07T09:17:38.766Z,21.8
2023-01-07T09:22:38.058Z,22.5
2023-01-07T09:27:36.613Z,22.3
2023-01-07T09:32:34.804Z,22.7
2023-01-07T09:37:33.223Z,22.8
2023-01-07T09:42:33.730Z,23
2023-01-07T09:47:30.278Z,23.3
2023-01-07T09:52:28.888Z,23.8
2023-01-07T09:57:27.164Z,24
2023-01-07T10:02:25.578Z,24.2
2023-01-07T10:07:23.827Z,23.9
2023-01-07T10:12:22.400Z,24.2
2023-01-07T10:17:20.603Z,24.4
2023-01-07T10:22:19.418Z,25.2
2023-01-07T10:27:19.115Z,25.5
2023-01-07T10:32:16.938Z,25.2
2023-01-07T10:37:15.526Z,24.6
2023-01-07T10:42:14.185Z,25.5
2023-01-07T10:47:12.921Z,24.9
2023-01-07T10:52:11.744Z,24.3
2023-01-07T10:57:09.245Z,23.5
2023-01-07T11:02:07.949Z,22.8
2023-01-07T11:07:06.087Z,22.9
2023-01-07T11:12:03.816Z,22.3
2023-01-07T11:17:01.325Z,21.1
2023-01-07T11:21:58.085Z,19.5
2023-01-07T11:26:55.397Z,17.8
2023-01-07T11:31:52.369Z,16.6
2023-01-07T11:36:49.568Z,16
2023-01-07T11:41:47.523Z,15.5
2023-01-07T11:46:45.989Z,15.5
2023-01-07T11:51:44.257Z,14.6
2023-01-07T11:56:42.287Z,14.1
2023-01-07T12:01:40.380Z,13.6
2023-01-07T12:06:38.610Z,13.2
2023-01-07T12:11:36.597Z,13.1
2023-01-07T12:16:34.666Z,12.6
2023-01-07T12:21:32.934Z,12.6
2023-01-07T12:26:31.542Z,12.7
2023-01-07T12:31:29.679Z,12.3
2023-01-07T12:36:27.598Z,12.2
2023-01-07T12:41:25.704Z,12.2
2023-01-07T12:46:24.183Z,12.1
2023-01-07T12:51:22.162Z,12
2023-01-07T12:56:20.532Z,11.6
2023-01-07T13:01:18.102Z,11.1
2023-01-07T13:06:15.937Z,10.2
2023-01-07T13:11:12.951Z,8.7
2023-01-07T13:16:10.857Z,8.1
2023-01-07T13:21:08.380Z,7.3
2023-01-07T13:26:06.100Z,6.7
2023-01-07T13:31:04.151Z,6.1
2023-01-07T13:36:01.834Z,5.8
2023-01-07T13:40:59.971Z,5.5
2023-01-07T13:45:58.614Z,5.5
2023-01-07T13:50:56.818Z,5.2
2023-01-07T13:55:54.948Z,4.9
2023-01-07T14:00:52.953Z,4.7
2023-01-07T14:05:51.206Z,4.2
2023-01-07T14:10:49.319Z,4
2023-01-07T14:15:47.637Z,4
2023-01-07T14:20:45.674Z,3.7
2023-01-07T14:25:43.911Z,3.5
2023-01-07T14:30:42.072Z,3.5
2023-01-07T14:35:40.255Z,3.4
2023-01-07T14:40:38.532Z,3.2
2023-01-07T14:45:36.890Z,3.1
2023-01-07T14:50:35.066Z,2.9
2023-01-07T14:55:33.174Z,2.6
2023-01-07T15:00:31.568Z,2.5
2023-01-07T15:05:30.078Z,2.3
2023-01-07T15:10:28.305Z,2
2023-01-07T15:15:26.523Z,1.8
2023-01-07T15:20:24.494Z,1.6
2023-01-07T15:25:22.872Z,1.4
2023-01-07T15:30:20.767Z,1.3
2023-01-07T15:35:18.786Z,1.1
2023-01-07T15:40:16.981Z,0.9
2023-01-07T15:45:15.376Z,0.8
2023-01-07T15:50:13.445Z,0.7
2023-01-07T15:55:11.773Z,0.7
2023-01-07T16:00:10.234Z,0.7
2023-01-07T16:05:08.573Z,0.5
2023-01-07T16:10:06.984Z,0.6
2023-01-07T16:15:05.438Z,0.5
2023-01-07T16:20:03.435Z,0.3
2023-01-07T16:25:01.924Z,0.2
2023-01-07T16:30:00.059Z,0.2
2023-01-07T16:34:58.424Z,0.2
2023-01-07T16:39:57.670Z,0.2
2023-01-07T16:44:56.153Z,0.2
2023-01-07T16:49:54.312Z,0.1
2023-01-07T16:54:52.336Z,0
2023-01-07T16:59:52.388Z,0
2023-01-07T17:04:49.101Z,-0.2
2023-01-07T17:09:47.475Z,-0.2
2023-01-07T17:14:45.894Z,-0.3
2023-01-07T17:19:44.221Z,-0.2
2023-01-07T17:24:42.556Z,-0.3
2023-01-07T17:29:40.751Z,-0.3
2023-01-07T17:34:39.161Z,-0.3
2023-01-07T17:39:37.350Z,-0.5
2023-01-07T17:44:35.827Z,-0.6
2023-01-07T17:49:34.420Z,-0.6
2023-01-07T17:54:32.717Z,-0.7
2023-01-07T17:59:31.117Z,-0.8
2023-01-07T18:04:29.803Z,-0.8
2023-01-07T18:09:28.162Z,-0.9
2023-01-07T18:14:26.463Z,-0.9
2023-01-07T18:19:24.900Z,-0.9
2023-01-07T18:24:23.744Z,-1
2023-01-07T18:29:22.031Z,-1
2023-01-07T18:34:20.363Z,-1
2023-01-07T18:39:19.672Z,-1.1
2023-01-07T18:44:16.837Z,-1.2
2023-01-07T18:49:16.130Z,-1.3
2023-01-07T18:54:14.435Z,-1.3
2023-01-07T18:59:12.939Z,-1.3
2023-01-07T19:04:11.529Z,-1.3
2023-01-07T19:09:09.605Z,-1.3
2023-01-07T19:14:08.083Z,-1.4
2023-01-07T19:19:06.548Z,-1.4
2023-01-07T19:24:05.084Z,-1.5
2023-01-07T19:29:03.453Z,-1.5
2023-01-07T19:34:01.867Z,-1.6
2023-01-07T19:39:00.194Z,-1.7
2023-01-07T19:43:58.636Z,-1.8
2023-01-07T19:48:56.994Z,-1.8
2023-01-07T19:53:55.413Z,-1.9
2023-01-07T19:58:53.877Z,-2.1
2023-01-07T20:03:52.517Z,-2.1
2023-01-07T20:08:51.159Z,-2
2023-01-07T20:13:49.721Z,-2.1
2023-01-07T20:18:48.181Z,-2.1
2023-01-07T20:23:46.644Z,-2.2
2023-01-07T20:28:44.850Z,-2.3
2023-01-07T20:33:43.413Z,-2.3
2023-01-07T20:38:41.985Z,-2.2
2023-01-07T20:43:40.394Z,-2.3
2023-01-07T20:48:38.697Z,-2.3
2023-01-07T20:53:37.153Z,-2.3
2023-01-07T20:58:35.810Z,-2.3
2023-01-07T21:03:34.377Z,-2.2
2023-01-07T21:08:32.807Z,-2.2
2023-01-07T21:13:31.335Z,-2.2
2023-01-07T21:18:29.705Z,-2.4
2023-01-07T21:23:28.427Z,-2.5
2023-01-07T21:28:26.624Z,-2.5
2023-01-07T21:33:24.749Z,-2.6
2023-01-07T21:38:22.876Z,-2.7
2023-01-07T21:43:21.416Z,-2.8
2023-01-07T21:48:19.428Z,-3
2023-01-07T21:53:17.723Z,-3
2023-01-07T21:58:16.193Z,-3
2023-01-07T22:03:14.702Z,-3
2023-01-07T22:08:13.123Z,-3
2023-01-07T22:13:11.628Z,-3.1
2023-01-07T22:18:09.987Z,-3.2
2023-01-07T22:23:08.493Z,-3.2
2023-01-07T22:28:07.162Z,-3.3
2023-01-07T22:33:05.519Z,-3.4
2023-01-07T22:38:03.759Z,-3.5
2023-01-07T22:43:02.290Z,-3.5
2023-01-07T22:48:00.598Z,-3.5
2023-01-07T22:52:59.131Z,-3.5
2023-01-07T22:57:57.696Z,-3.5
2023-01-07T23:02:56.321Z,-3.6
2023-01-07T23:07:54.431Z,-3.8
2023-01-07T23:12:52.780Z,-3.7
2023-01-07T23:17:51.096Z,-3.7
2023-01-07T23:22:49.683Z,-3.7
2023-01-07T23:27:47.353Z,-3.7
2023-01-07T23:32:45.466Z,-3.9
2023-01-07T23:37:43.821Z,-3.8
2023-01-07T23:42:42.291Z,-3.9
2023-01-07T23:47:40.591Z,-3.8
2023-01-07T23:52:38.933Z,-3.9
2023-01-07T23:57:37.153Z,-3.8
